createdAt,value
2022-12-05T00:01:21.951Z,21.38
2022-12-05T00:03:50.291Z,20.13
2022-12-05T00:06:17.414Z,20.85
2022-12-05T00:08:45.060Z,23.23
2022-12-05T00:11:17.974Z,33.65
2022-12-05T00:13:45.638Z,28.90
2022-12-05T00:16:15.633Z,25.98
2022-12-05T00:18:42.747Z,23.42
2022-12-05T00:21:15.437Z,25.08
2022-12-05T00:23:42.542Z,22.63
2022-12-05T00:26:09.740Z,21.73
2022-12-05T00:28:37.034Z,33.55
2022-12-05T00:31:08.702Z,25.88
2022-12-05T00:33:35.787Z,19.73
2022-12-05T00:36:07.925Z,24.55
2022-12-05T00:38:35.338Z,20.42
2022-12-05T00:41:13.751Z,26.88
2022-12-05T00:43:40.666Z,26.52
2022-12-05T00:46:13.815Z,26.98
2022-12-05T00:48:40.811Z,23.88
2022-12-05T00:51:19.859Z,22.52
2022-12-05T00:53:47.183Z,24.63
2022-12-05T00:56:16.966Z,25.42
2022-12-05T00:58:44.565Z,24.10
2022-12-05T01:01:16.821Z,22.95
2022-12-05T01:03:45.147Z,27.70
2022-12-05T01:06:13.285Z,25.75
2022-12-05T01:08:40.046Z,25.67
2022-12-05T01:11:08.252Z,23.10
2022-12-05T01:13:36.054Z,28.33
2022-12-05T01:16:03.032Z,32.80
2022-12-05T01:18:30.007Z,25.35
2022-12-05T01:20:57.080Z,28.05
2022-12-05T01:23:24.250Z,22.55
2022-12-05T01:25:52.291Z,28.30
2022-12-05T01:28:18.968Z,20.17
2022-12-05T01:30:48.000Z,26.77
2022-12-05T01:33:15.140Z,22.48
2022-12-05T01:35:42.098Z,27.30
2022-12-05T01:38:11.405Z,24.80
2022-12-05T01:40:38.250Z,21.80
2022-12-05T01:43:14.220Z,25.35
2022-12-05T01:45:43.919Z,28.15
2022-12-05T01:48:20.681Z,27.05
2022-12-05T01:50:49.953Z,23.45
2022-12-05T01:53:17.656Z,26.60
2022-12-05T01:55:45.976Z,25.83
2022-12-05T01:58:13.004Z,23.75
2022-12-05T02:00:41.531Z,20.73
2022-12-05T02:03:12.606Z,22.30
2022-12-05T02:05:39.355Z,21.92
2022-12-05T02:08:09.500Z,24.15
2022-12-05T02:10:40.243Z,36.85
2022-12-05T02:13:34.119Z,23.27
2022-12-05T02:16:11.809Z,26.70
2022-12-05T02:19:03.356Z,23.30
2022-12-05T02:21:48.698Z,19.08
2022-12-05T02:24:37.101Z,20.58
2022-12-05T02:27:20.890Z,22.65
2022-12-05T02:30:05.955Z,19.23
2022-12-05T02:32:47.361Z,27.70
2022-12-05T02:35:24.609Z,19.50
2022-12-05T02:38:02.311Z,22.92
2022-12-05T02:40:39.775Z,26.00
2022-12-05T02:43:34.001Z,28.13
2022-12-05T02:46:08.524Z,23.17
2022-12-05T02:48:37.142Z,15.60
2022-12-05T02:51:07.400Z,26.15
2022-12-05T02:53:37.207Z,27.10
2022-12-05T02:56:05.710Z,23.48
2022-12-05T02:58:35.949Z,19.25
2022-12-05T03:01:05.216Z,21.60
2022-12-05T03:03:33.302Z,27.60
2022-12-05T03:06:09.392Z,29.70
2022-12-05T03:08:42.895Z,17.50
2022-12-05T03:11:09.787Z,26.10
2022-12-05T03:13:43.901Z,23.40
2022-12-05T03:16:18.392Z,22.75
2022-12-05T03:18:51.285Z,24.33
2022-12-05T03:21:27.181Z,18.63
2022-12-05T03:23:59.294Z,27.98
2022-12-05T03:26:36.160Z,20.33
2022-12-05T03:29:24.644Z,17.75
2022-12-05T03:32:06.402Z,19.77
2022-12-05T03:35:16.305Z,17.60
2022-12-05T03:37:57.645Z,21.42
2022-12-05T03:40:29.339Z,23.38
2022-12-05T03:43:09.016Z,19.98
2022-12-05T03:45:43.946Z,19.33
2022-12-05T03:48:26.664Z,21.13
2022-12-05T03:50:55.937Z,18.50
2022-12-05T03:53:31.505Z,24.60
2022-12-05T03:56:14.475Z,21.20
2022-12-05T03:58:47.426Z,18.10
2022-12-05T04:01:17.822Z,17.98
2022-12-05T04:03:51.593Z,15.40
2022-12-05T04:06:25.854Z,21.23
2022-12-05T04:08:58.467Z,21.88
2022-12-05T04:11:27.644Z,22.33
2022-12-05T04:13:59.000Z,19.38
2022-12-05T04:16:49.844Z,23.25
2022-12-05T04:19:51.218Z,21.08
2022-12-05T04:22:19.557Z,20.02
2022-12-05T04:25:05.904Z,18.20
2022-12-05T04:27:49.286Z,22.90
2022-12-05T04:30:21.190Z,26.77
2022-12-05T04:33:26.836Z,22.50
2022-12-05T04:36:09.674Z,18.92
2022-12-05T04:38:55.371Z,17.80
2022-12-05T04:41:53.721Z,18.42
2022-12-05T04:44:25.622Z,16.15
2022-12-05T04:46:55.846Z,20.25
2022-12-05T04:49:26.450Z,21.08
2022-12-05T04:51:57.275Z,18.35
2022-12-05T04:54:31.152Z,17.67
2022-12-05T04:57:07.234Z,21.17
2022-12-05T04:59:35.010Z,17.25
2022-12-05T05:02:09.164Z,19.35
2022-12-05T05:04:40.788Z,17.85
2022-12-05T05:07:10.545Z,23.33
2022-12-05T05:09:38.297Z,19.27
2022-12-05T05:12:05.702Z,27.00
2022-12-05T05:14:32.476Z,20.00
2022-12-05T05:16:59.081Z,17.70
2022-12-05T05:19:25.649Z,21.45
2022-12-05T05:21:52.772Z,19.40
2022-12-05T05:24:21.631Z,15.05
2022-12-05T05:26:52.433Z,17.88
2022-12-05T05:29:22.287Z,17.92
2022-12-05T05:31:48.832Z,18.08
2022-12-05T05:34:16.062Z,17.42
2022-12-05T05:36:43.798Z,14.48
2022-12-05T05:39:15.310Z,18.63
2022-12-05T05:41:42.851Z,19.52
2022-12-05T05:44:10.240Z,18.52
2022-12-05T05:46:37.515Z,13.25
2022-12-05T05:49:05.165Z,14.80
2022-12-05T05:51:32.241Z,19.20
2022-12-05T05:53:59.622Z,12.88
2022-12-05T05:56:27.015Z,12.27
2022-12-05T05:58:59.981Z,17.60
2022-12-05T06:01:28.058Z,16.15
2022-12-05T06:03:54.811Z,15.27
2022-12-05T06:06:22.760Z,17.90
2022-12-05T06:08:49.633Z,15.65
2022-12-05T06:11:25.414Z,15.43
2022-12-05T06:13:58.161Z,18.20
2022-12-05T06:16:25.276Z,21.73
2022-12-05T06:18:52.416Z,15.40
2022-12-05T06:21:19.515Z,10.88
2022-12-05T06:23:46.093Z,14.10
2022-12-05T06:26:17.334Z,18.35
2022-12-05T06:28:44.361Z,18.23
2022-12-05T06:31:14.328Z,12.52
2022-12-05T06:33:41.139Z,12.25
2022-12-05T06:36:14.088Z,17.63
2022-12-05T06:38:42.620Z,17.20
2022-12-05T06:41:12.020Z,10.07
2022-12-05T06:43:38.620Z,18.88
2022-12-05T06:46:07.117Z,16.08
2022-12-05T06:48:33.893Z,15.82
2022-12-05T06:51:00.699Z,15.68
2022-12-05T06:53:28.324Z,14.70
2022-12-05T06:56:00.048Z,12.32
2022-12-05T06:58:28.404Z,11.60
2022-12-05T07:01:14.198Z,12.50
2022-12-05T07:03:41.073Z,10.43
2022-12-05T07:06:08.163Z,11.77
2022-12-05T07:08:35.602Z,13.38
2022-12-05T07:11:03.054Z,9.75
2022-12-05T07:13:29.897Z,10.98
2022-12-05T07:15:58.381Z,10.73
2022-12-05T07:18:25.354Z,10.07
2022-12-05T07:21:11.761Z,16.85
2022-12-05T07:23:39.426Z,11.18
2022-12-05T07:26:07.276Z,13.80
2022-12-05T07:28:34.043Z,9.45
2022-12-05T07:31:09.394Z,13.20
2022-12-05T07:33:36.628Z,11.55
2022-12-05T07:36:07.233Z,17.40
2022-12-05T07:38:34.115Z,9.52
2022-12-05T07:41:10.200Z,15.60
2022-12-05T07:43:40.112Z,9.43
2022-12-05T07:46:08.511Z,11.63
2022-12-05T07:48:35.242Z,12.75
2022-12-05T07:51:06.471Z,11.48
2022-12-05T07:53:34.328Z,11.68
2022-12-05T07:56:02.679Z,12.20
2022-12-05T07:58:30.044Z,10.20
2022-12-05T08:00:58.132Z,11.98
2022-12-05T08:03:24.827Z,10.25
2022-12-05T08:05:51.384Z,9.75
2022-12-05T08:08:18.132Z,10.38
2022-12-05T08:10:44.722Z,13.88
2022-12-05T08:13:11.458Z,10.75
2022-12-05T08:15:38.003Z,12.02
2022-12-05T08:18:04.693Z,13.10
2022-12-05T08:20:31.361Z,15.27
2022-12-05T08:22:58.041Z,11.63
2022-12-05T08:25:24.595Z,14.98
2022-12-05T08:27:51.210Z,12.52
2022-12-05T08:30:17.997Z,11.80
2022-12-05T08:32:44.567Z,13.27
2022-12-05T08:35:11.152Z,11.73
2022-12-05T08:37:37.804Z,14.68
2022-12-05T08:40:05.313Z,15.40
2022-12-05T08:42:32.740Z,10.00
2022-12-05T08:44:59.565Z,9.18
2022-12-05T08:47:27.145Z,17.08
2022-12-05T08:49:53.644Z,17.38
2022-12-05T08:52:21.913Z,13.40
2022-12-05T08:54:48.519Z,13.70
2022-12-05T08:57:15.212Z,13.68
2022-12-05T08:59:41.947Z,9.55
2022-12-05T09:02:10.203Z,10.57
2022-12-05T09:04:36.742Z,13.45
2022-12-05T09:07:03.644Z,9.38
2022-12-05T09:09:30.398Z,10.45
2022-12-05T09:11:57.762Z,11.98
2022-12-05T09:14:24.386Z,12.60
2022-12-05T09:16:50.947Z,15.30
2022-12-05T09:19:20.964Z,9.85
2022-12-05T09:21:47.878Z,11.85
2022-12-05T09:24:15.031Z,13.00
2022-12-05T09:26:42.336Z,12.25
2022-12-05T09:29:17.317Z,12.00
2022-12-05T09:31:46.146Z,10.40
2022-12-05T09:34:14.782Z,10.88
2022-12-05T09:36:42.470Z,7.95
2022-12-05T09:39:10.866Z,9.48
2022-12-05T09:41:59.219Z,9.93
2022-12-05T09:44:44.695Z,11.60
2022-12-05T09:47:26.486Z,8.80
2022-12-05T09:50:02.488Z,13.48
2022-12-05T09:52:34.737Z,15.18
2022-12-05T09:55:12.594Z,10.02
2022-12-05T09:57:49.994Z,10.23
2022-12-05T10:00:17.964Z,10.57
2022-12-05T10:02:53.765Z,15.75
2022-12-05T10:05:43.487Z,13.48
2022-12-05T10:08:36.615Z,12.77
2022-12-05T10:11:27.561Z,7.63
2022-12-05T10:14:18.814Z,6.25
2022-12-05T10:16:51.595Z,9.95
2022-12-05T10:19:33.657Z,8.65
2022-12-05T10:22:41.859Z,10.43
2022-12-05T10:25:12.569Z,10.10
2022-12-05T10:27:47.011Z,11.05
2022-12-05T10:30:17.304Z,7.73
2022-12-05T10:32:53.503Z,5.65
2022-12-05T10:35:22.205Z,11.60
2022-12-05T10:37:51.766Z,6.78
2022-12-05T10:40:19.638Z,13.00
2022-12-05T10:42:47.677Z,12.02
2022-12-05T10:45:18.146Z,7.63
2022-12-05T10:47:45.277Z,12.02
2022-12-05T10:50:36.719Z,10.55
2022-12-05T10:53:04.899Z,6.55
2022-12-05T10:55:37.202Z,9.00
2022-12-05T10:58:16.986Z,9.05
2022-12-05T11:00:48.023Z,11.63
2022-12-05T11:03:25.770Z,9.30
2022-12-05T11:05:56.575Z,8.27
2022-12-05T11:08:55.965Z,8.32
2022-12-05T11:11:24.010Z,10.30
2022-12-05T11:14:17.072Z,10.85
2022-12-05T11:16:52.912Z,12.73
2022-12-05T11:19:22.535Z,10.98
2022-12-05T11:21:50.117Z,10.73
2022-12-05T11:24:28.785Z,11.10
2022-12-05T11:26:57.741Z,11.13
2022-12-05T11:29:31.550Z,11.27
2022-12-05T11:31:58.689Z,9.68
2022-12-05T11:34:35.337Z,10.35
2022-12-05T11:37:13.178Z,9.35
2022-12-05T11:39:40.395Z,13.18
2022-12-05T11:42:12.960Z,11.23
2022-12-05T11:44:48.577Z,8.27
2022-12-05T11:47:45.789Z,12.40
2022-12-05T11:50:42.674Z,11.48
2022-12-05T11:53:27.883Z,9.77
2022-12-05T11:56:18.817Z,11.77
2022-12-05T11:59:02.190Z,8.15
2022-12-05T12:01:59.916Z,11.32
2022-12-05T12:04:59.217Z,6.40
2022-12-05T12:07:49.618Z,7.78
2022-12-05T12:11:04.465Z,11.20
2022-12-05T12:14:06.130Z,8.32
2022-12-05T12:17:01.806Z,8.63
2022-12-05T12:19:48.998Z,8.10
2022-12-05T12:22:24.650Z,9.88
2022-12-05T12:25:12.218Z,7.82
2022-12-05T12:28:04.205Z,8.85
2022-12-05T12:30:49.401Z,13.93
2022-12-05T12:33:41.297Z,8.88
2022-12-05T12:36:28.447Z,7.13
2022-12-05T12:39:16.018Z,9.32
2022-12-05T12:41:54.596Z,10.95
2022-12-05T12:44:39.170Z,10.88
2022-12-05T12:47:14.917Z,11.07
2022-12-05T12:49:49.379Z,8.93
2022-12-05T12:52:21.755Z,10.33
2022-12-05T12:55:04.593Z,10.65
2022-12-05T12:58:09.933Z,6.45
2022-12-05T13:00:51.453Z,7.15
2022-12-05T13:03:31.028Z,13.95
2022-12-05T13:06:06.793Z,6.90
2022-12-05T13:08:46.133Z,6.90
2022-12-05T13:11:15.149Z,6.60
2022-12-05T13:13:50.210Z,5.25
2022-12-05T13:16:25.257Z,14.95
2022-12-05T13:18:51.994Z,10.48
2022-12-05T13:21:19.899Z,5.53
2022-12-05T13:23:54.943Z,10.52
2022-12-05T13:26:23.717Z,8.25
2022-12-05T13:29:04.043Z,5.85
2022-12-05T13:31:36.624Z,6.70
2022-12-05T13:34:03.247Z,6.32
2022-12-05T13:36:59.207Z,6.97
2022-12-05T13:39:44.539Z,7.82
2022-12-05T13:42:24.412Z,6.10
2022-12-05T13:44:58.960Z,5.75
2022-12-05T13:47:28.462Z,6.00
2022-12-05T13:50:03.323Z,5.95
2022-12-05T13:52:31.902Z,6.68
2022-12-05T13:55:06.674Z,4.88
2022-12-05T13:57:39.238Z,4.90
2022-12-05T14:00:08.971Z,9.48
2022-12-05T14:02:41.888Z,6.78
2022-12-05T14:05:20.802Z,5.70
2022-12-05T14:07:48.359Z,5.13
2022-12-05T14:10:16.803Z,7.20
2022-12-05T14:13:09.156Z,7.88
2022-12-05T14:15:38.713Z,7.78
2022-12-05T14:18:14.521Z,4.88
2022-12-05T14:20:48.705Z,5.00
2022-12-05T14:23:18.338Z,5.78
2022-12-05T14:26:32.239Z,8.07
2022-12-05T14:29:36.084Z,8.48
2022-12-05T14:32:23.846Z,4.93
2022-12-05T14:35:03.752Z,5.82
2022-12-05T14:37:33.391Z,4.30
2022-12-05T14:40:03.765Z,7.63
2022-12-05T14:42:50.798Z,5.65
2022-12-05T14:45:35.033Z,4.57
2022-12-05T14:48:04.963Z,5.15
2022-12-05T14:50:40.153Z,5.03
2022-12-05T14:53:21.965Z,4.93
2022-12-05T14:55:51.013Z,5.07
2022-12-05T14:58:48.685Z,4.22
2022-12-05T15:01:26.579Z,4.13
2022-12-05T15:03:59.090Z,8.10
2022-12-05T15:06:26.835Z,6.38
2022-12-05T15:09:14.555Z,8.43
2022-12-05T15:11:43.637Z,5.20
2022-12-05T15:14:21.133Z,8.93
2022-12-05T15:16:52.253Z,5.75
2022-12-05T15:19:43.313Z,4.85
2022-12-05T15:22:15.154Z,4.05
2022-12-05T15:24:41.924Z,3.75
2022-12-05T15:27:11.695Z,4.70
2022-12-05T15:29:41.013Z,6.15
2022-12-05T15:32:10.552Z,6.72
2022-12-05T15:35:02.337Z,5.57
2022-12-05T15:37:58.357Z,6.97
2022-12-05T15:40:26.100Z,6.25
2022-12-05T15:42:55.504Z,6.57
2022-12-05T15:45:23.866Z,7.30
2022-12-05T15:47:54.959Z,8.27
2022-12-05T15:50:30.498Z,6.50
2022-12-05T15:53:03.829Z,7.53
2022-12-05T15:55:38.747Z,6.28
2022-12-05T15:58:25.815Z,9.60
2022-12-05T16:01:19.789Z,8.63
2022-12-05T16:03:53.589Z,6.15
2022-12-05T16:06:32.586Z,9.95
2022-12-05T16:09:00.877Z,9.07
2022-12-05T16:11:27.681Z,11.60
2022-12-05T16:14:00.865Z,9.15
2022-12-05T16:16:31.592Z,8.13
2022-12-05T16:19:05.343Z,12.73
2022-12-05T16:21:40.762Z,15.05
2022-12-05T16:24:17.210Z,12.23
2022-12-05T16:26:57.725Z,12.15
2022-12-05T16:29:28.075Z,13.20
2022-12-05T16:32:00.125Z,15.38
2022-12-05T16:34:29.305Z,12.15
2022-12-05T16:36:56.966Z,13.02
2022-12-05T16:39:25.923Z,10.73
2022-12-05T16:41:52.826Z,10.75
2022-12-05T16:45:03.039Z,9.40
2022-12-05T16:47:41.957Z,8.65
2022-12-05T16:50:23.366Z,11.27
2022-12-05T16:52:50.547Z,12.07
2022-12-05T16:55:17.063Z,11.38
2022-12-05T16:57:43.621Z,10.07
2022-12-05T17:00:16.413Z,9.45
2022-12-05T17:02:43.112Z,12.43
2022-12-05T17:05:13.909Z,13.25
2022-12-05T17:07:40.548Z,13.02
2022-12-05T17:10:07.853Z,12.93
2022-12-05T17:12:34.574Z,11.48
2022-12-05T17:15:01.551Z,7.38
2022-12-05T17:17:28.447Z,13.77
2022-12-05T17:19:55.020Z,11.70
2022-12-05T17:22:22.345Z,14.25
2022-12-05T17:24:48.957Z,13.43
2022-12-05T17:27:16.155Z,13.60
2022-12-05T17:29:43.181Z,8.50
2022-12-05T17:32:10.497Z,12.05
2022-12-05T17:34:37.006Z,10.80
2022-12-05T17:37:03.601Z,12.52
2022-12-05T17:39:31.161Z,8.60
2022-12-05T17:41:58.046Z,13.10
2022-12-05T17:44:24.748Z,11.30
2022-12-05T17:46:51.449Z,9.23
2022-12-05T17:49:18.291Z,9.63
2022-12-05T17:52:13.305Z,10.15
2022-12-05T17:54:32.287Z,12.90
2022-12-05T17:56:59.011Z,8.73
2022-12-05T17:59:25.700Z,12.38
2022-12-05T18:01:52.260Z,16.25
2022-12-05T18:04:23.113Z,11.45
2022-12-05T18:06:50.446Z,14.00
2022-12-05T18:09:17.033Z,10.40
2022-12-05T18:11:43.620Z,10.10
2022-12-05T18:14:10.566Z,15.57
2022-12-05T18:16:37.549Z,13.95
2022-12-05T18:19:04.354Z,15.55
2022-12-05T18:21:31.155Z,12.75
2022-12-05T18:23:57.712Z,14.40
2022-12-05T18:26:24.382Z,13.15
2022-12-05T18:28:53.630Z,15.00
2022-12-05T18:31:20.282Z,13.43
2022-12-05T18:33:47.135Z,17.40
2022-12-05T18:36:17.165Z,13.30
2022-12-05T18:38:53.273Z,21.77
2022-12-05T18:41:23.120Z,17.40
2022-12-05T18:43:50.602Z,18.55
2022-12-05T18:46:17.307Z,14.10
2022-12-05T18:48:47.443Z,18.25
2022-12-05T18:51:21.110Z,18.10
2022-12-05T18:53:53.399Z,16.50
2022-12-05T18:56:34.502Z,17.17
2022-12-05T18:59:03.893Z,19.70
2022-12-05T19:01:32.444Z,14.70
2022-12-05T19:04:00.959Z,19.85
2022-12-05T19:06:30.754Z,19.67
2022-12-05T19:08:59.254Z,17.27
2022-12-05T19:11:27.009Z,17.42
2022-12-05T19:14:02.048Z,18.42
2022-12-05T19:16:31.269Z,19.58
2022-12-05T19:19:01.913Z,13.63
2022-12-05T19:21:30.553Z,18.70
2022-12-05T19:23:57.432Z,16.88
2022-12-05T19:26:24.322Z,12.23
2022-12-05T19:28:51.030Z,16.83
2022-12-05T19:31:23.317Z,21.15
2022-12-05T19:33:52.874Z,17.23
2022-12-05T19:36:20.821Z,24.50
2022-12-05T19:38:49.492Z,18.73
2022-12-05T19:41:19.639Z,14.02
2022-12-05T19:43:46.995Z,19.65
2022-12-05T19:46:24.658Z,20.23
2022-12-05T19:48:53.155Z,19.38
2022-12-05T19:51:20.251Z,29.08
2022-12-05T19:53:48.456Z,35.85
2022-12-05T19:56:19.109Z,22.90
2022-12-05T19:58:46.356Z,20.60
2022-12-05T20:01:15.493Z,20.70
2022-12-05T20:03:43.797Z,23.50
2022-12-05T20:06:10.830Z,23.55
2022-12-05T20:08:38.348Z,28.13
2022-12-05T20:11:11.602Z,21.33
2022-12-05T20:13:47.674Z,18.67
2022-12-05T20:16:18.211Z,25.92
2022-12-05T20:18:45.163Z,26.40
2022-12-05T20:21:13.701Z,25.92
2022-12-05T20:23:40.535Z,18.33
2022-12-05T20:26:11.400Z,21.15
2022-12-05T20:28:38.857Z,19.70
2022-12-05T20:31:19.062Z,20.15
2022-12-05T20:33:46.349Z,15.13
2022-12-05T20:36:16.700Z,21.05
2022-12-05T20:38:43.963Z,25.38
2022-12-05T20:41:15.218Z,23.15
2022-12-05T20:43:42.936Z,22.60
2022-12-05T20:46:19.216Z,22.83
2022-12-05T20:48:46.605Z,24.42
2022-12-05T20:51:19.789Z,17.85
2022-12-05T20:53:47.049Z,23.45
2022-12-05T20:56:21.818Z,22.75
2022-12-05T20:58:50.254Z,21.80
2022-12-05T21:01:18.374Z,26.30
2022-12-05T21:03:47.533Z,18.25
2022-12-05T21:06:17.129Z,19.67
2022-12-05T21:08:44.011Z,13.85
2022-12-05T21:11:11.929Z,23.15
2022-12-05T21:13:39.300Z,12.68
2022-12-05T21:16:09.236Z,14.43
2022-12-05T21:18:36.286Z,12.40
2022-12-05T21:34:28.247Z,17.23
2022-12-05T21:36:54.921Z,19.98
2022-12-05T21:39:21.457Z,20.45
2022-12-05T21:41:48.035Z,14.05
2022-12-05T21:44:14.871Z,17.27
2022-12-05T21:46:41.513Z,18.88
2022-12-05T21:49:08.057Z,18.27
2022-12-05T21:51:34.581Z,20.52
2022-12-05T21:54:01.261Z,18.40
2022-12-05T21:56:28.426Z,21.25
2022-12-05T21:58:55.154Z,19.80
2022-12-05T22:01:26.017Z,15.55
2022-12-05T22:03:54.665Z,19.58
2022-12-05T22:06:21.679Z,14.90
2022-12-05T22:08:48.376Z,15.35
2022-12-05T22:11:20.915Z,22.40
2022-12-05T22:13:48.996Z,15.10
2022-12-05T22:16:16.985Z,20.00
2022-12-05T22:18:44.182Z,18.58
2022-12-05T22:21:13.446Z,13.45
2022-12-05T22:23:40.377Z,14.27
2022-12-05T22:26:09.569Z,12.00
2022-12-05T22:28:36.869Z,17.17
2022-12-05T22:31:05.979Z,17.10
2022-12-05T22:33:35.625Z,19.45
2022-12-05T22:36:04.524Z,16.40
2022-12-05T22:38:33.193Z,12.35
2022-12-05T22:41:02.989Z,14.82
2022-12-05T22:43:30.973Z,15.82
2022-12-05T22:45:57.490Z,22.13
2022-12-05T22:48:24.268Z,16.58
2022-12-05T22:50:54.115Z,16.38
2022-12-05T22:53:22.793Z,14.32
2022-12-05T22:55:49.564Z,15.18
2022-12-05T22:58:17.147Z,17.02
2022-12-05T23:00:44.475Z,20.52
2022-12-05T23:03:11.523Z,15.15
2022-12-05T23:05:43.505Z,23.13
2022-12-05T23:08:10.973Z,16.02
2022-12-05T23:10:39.300Z,13.68
2022-12-05T23:13:07.151Z,18.35
2022-12-05T23:15:36.633Z,13.88
2022-12-05T23:18:03.354Z,15.68
2022-12-05T23:20:29.845Z,17.42
2022-12-05T23:22:57.246Z,17.30
2022-12-05T23:25:23.850Z,17.20
2022-12-05T23:27:50.361Z,19.48
2022-12-05T23:30:17.205Z,16.70
2022-12-05T23:32:43.846Z,12.90
2022-12-05T23:35:10.931Z,15.65
2022-12-05T23:37:39.629Z,15.73
2022-12-05T23:40:06.673Z,18.27
2022-12-05T23:42:33.375Z,17.02
2022-12-05T23:44:59.929Z,19.75
2022-12-05T23:47:26.830Z,17.42
2022-12-05T23:49:53.329Z,19.27
2022-12-05T23:52:19.859Z,12.63
2022-12-05T23:54:46.325Z,21.30
2022-12-05T23:57:17.358Z,20.65
2022-12-05T23:59:45.092Z,18.48
